sensor_id;sensor_type;location;lat;lon;timestamp;P1;durP1;ratioP1;P2;durP2;ratioP2
12840;SDS011;6487;48.626;12.486;2023-12-04T00:00:09;21.03;;;15.03;;
12840;SDS011;6487;48.626;12.486;2023-12-04T00:02:40;23.03;;;15.80;;
12840;SDS011;6487;48.626;12.486;2023-12-04T00:05:09;22.40;;;16.60;;
12840;SDS011;6487;48.626;12.486;2023-12-04T00:07:40;22.53;;;16.23;;
12840;SDS011;6487;48.626;12.486;2023-12-04T00:10:11;21.73;;;15.47;;
12840;SDS011;6487;48.626;12.486;2023-12-04T00:12:40;21.43;;;15.10;;
12840;SDS011;6487;48.626;12.486;2023-12-04T00:15:09;19.90;;;14.93;;
12840;SDS011;6487;48.626;12.486;2023-12-04T00:17:37;21.47;;;15.43;;
12840;SDS011;6487;48.626;12.486;2023-12-04T00:20:10;20.77;;;14.40;;
12840;SDS011;6487;48.626;12.486;2023-12-04T00:22:39;18.70;;;14.07;;
12840;SDS011;6487;48.626;12.486;2023-12-04T00:25:08;20.73;;;14.27;;
12840;SDS011;6487;48.626;12.486;2023-12-04T00:27:36;21.30;;;16.17;;
12840;SDS011;6487;48.626;12.486;2023-12-04T00:30:11;22.47;;;16.17;;
12840;SDS011;6487;48.626;12.486;2023-12-04T00:32:39;21.07;;;15.80;;
12840;SDS011;6487;48.626;12.486;2023-12-04T00:35:09;22.53;;;15.53;;
12840;SDS011;6487;48.626;12.486;2023-12-04T00:37:38;23.60;;;16.13;;
12840;SDS011;6487;48.626;12.486;2023-12-04T00:40:09;21.67;;;16.20;;
12840;SDS011;6487;48.626;12.486;2023-12-04T00:42:38;23.93;;;15.50;;
12840;SDS011;6487;48.626;12.486;2023-12-04T00:45:10;22.10;;;16.50;;
12840;SDS011;6487;48.626;12.486;2023-12-04T00:47:38;22.23;;;15.93;;
12840;SDS011;6487;48.626;12.486;2023-12-04T00:50:10;23.43;;;16.53;;
12840;SDS011;6487;48.626;12.486;2023-12-04T00:52:39;23.27;;;16.73;;
12840;SDS011;6487;48.626;12.486;2023-12-04T00:55:07;23.47;;;16.63;;
12840;SDS011;6487;48.626;12.486;2023-12-04T00:57:36;22.50;;;15.40;;
12840;SDS011;6487;48.626;12.486;2023-12-04T01:00:10;24.83;;;17.17;;
12840;SDS011;6487;48.626;12.486;2023-12-04T01:02:40;23.47;;;16.77;;
12840;SDS011;6487;48.626;12.486;2023-12-04T01:05:10;26.77;;;17.80;;
12840;SDS011;6487;48.626;12.486;2023-12-04T01:07:39;23.80;;;16.63;;
12840;SDS011;6487;48.626;12.486;2023-12-04T01:10:08;22.27;;;15.67;;
12840;SDS011;6487;48.626;12.486;2023-12-04T01:12:37;23.70;;;16.40;;
12840;SDS011;6487;48.626;12.486;2023-12-04T01:15:06;22.60;;;16.93;;
12840;SDS011;6487;48.626;12.486;2023-12-04T01:17:35;24.20;;;16.10;;
12840;SDS011;6487;48.626;12.486;2023-12-04T01:20:07;22.03;;;15.90;;
12840;SDS011;6487;48.626;12.486;2023-12-04T01:22:41;23.10;;;15.47;;
12840;SDS011;6487;48.626;12.486;2023-12-04T01:25:09;21.63;;;16.30;;
12840;SDS011;6487;48.626;12.486;2023-12-04T01:27:38;24.93;;;15.90;;
12840;SDS011;6487;48.626;12.486;2023-12-04T01:30:07;20.20;;;14.83;;
12840;SDS011;6487;48.626;12.486;2023-12-04T01:32:37;21.37;;;15.47;;
12840;SDS011;6487;48.626;12.486;2023-12-04T01:35:06;22.03;;;16.50;;
12840;SDS011;6487;48.626;12.486;2023-12-04T01:37:36;22.07;;;16.03;;
12840;SDS011;6487;48.626;12.486;2023-12-04T01:40:06;23.37;;;16.53;;
12840;SDS011;6487;48.626;12.486;2023-12-04T01:42:38;21.30;;;16.13;;
12840;SDS011;6487;48.626;12.486;2023-12-04T01:45:10;23.37;;;15.83;;
12840;SDS011;6487;48.626;12.486;2023-12-04T01:47:38;21.87;;;16.43;;
12840;SDS011;6487;48.626;12.486;2023-12-04T01:50:07;22.77;;;15.47;;
12840;SDS011;6487;48.626;12.486;2023-12-04T01:52:38;21.57;;;16.07;;
12840;SDS011;6487;48.626;12.486;2023-12-04T01:55:08;21.83;;;15.27;;
12840;SDS011;6487;48.626;12.486;2023-12-04T01:57:40;20.00;;;14.30;;
12840;SDS011;6487;48.626;12.486;2023-12-04T02:00:09;22.63;;;14.97;;
12840;SDS011;6487;48.626;12.486;2023-12-04T02:02:41;22.80;;;16.10;;
12840;SDS011;6487;48.626;12.486;2023-12-04T02:05:10;22.70;;;15.43;;
12840;SDS011;6487;48.626;12.486;2023-12-04T02:07:41;22.80;;;15.23;;
12840;SDS011;6487;48.626;12.486;2023-12-04T02:10:10;21.47;;;14.53;;
12840;SDS011;6487;48.626;12.486;2023-12-04T02:12:39;21.83;;;15.17;;
12840;SDS011;6487;48.626;12.486;2023-12-04T02:15:08;20.90;;;15.60;;
12840;SDS011;6487;48.626;12.486;2023-12-04T02:17:37;20.93;;;15.63;;
12840;SDS011;6487;48.626;12.486;2023-12-04T02:20:07;22.13;;;15.77;;
12840;SDS011;6487;48.626;12.486;2023-12-04T02:22:37;23.70;;;14.70;;
12840;SDS011;6487;48.626;12.486;2023-12-04T02:25:08;20.77;;;15.13;;
12840;SDS011;6487;48.626;12.486;2023-12-04T02:27:59;22.47;;;15.17;;
12840;SDS011;6487;48.626;12.486;2023-12-04T02:30:35;25.40;;;14.93;;
12840;SDS011;6487;48.626;12.486;2023-12-04T02:33:06;19.57;;;13.93;;
12840;SDS011;6487;48.626;12.486;2023-12-04T02:35:36;21.63;;;14.07;;
12840;SDS011;6487;48.626;12.486;2023-12-04T02:38:07;20.10;;;14.30;;
12840;SDS011;6487;48.626;12.486;2023-12-04T02:40:37;18.63;;;13.80;;
12840;SDS011;6487;48.626;12.486;2023-12-04T02:43:05;18.93;;;13.40;;
12840;SDS011;6487;48.626;12.486;2023-12-04T02:45:34;20.50;;;14.03;;
12840;SDS011;6487;48.626;12.486;2023-12-04T02:48:03;20.47;;;14.87;;
12840;SDS011;6487;48.626;12.486;2023-12-04T02:50:32;20.20;;;14.13;;
12840;SDS011;6487;48.626;12.486;2023-12-04T02:53:00;21.90;;;14.80;;
12840;SDS011;6487;48.626;12.486;2023-12-04T02:55:29;20.07;;;14.47;;
12840;SDS011;6487;48.626;12.486;2023-12-04T02:58:00;22.77;;;15.67;;
12840;SDS011;6487;48.626;12.486;2023-12-04T03:00:28;21.23;;;15.43;;
12840;SDS011;6487;48.626;12.486;2023-12-04T03:02:58;21.07;;;14.73;;
12840;SDS011;6487;48.626;12.486;2023-12-04T03:05:26;23.93;;;15.93;;
12840;SDS011;6487;48.626;12.486;2023-12-04T03:07:59;25.13;;;15.57;;
12840;SDS011;6487;48.626;12.486;2023-12-04T03:10:27;25.77;;;16.30;;
12840;SDS011;6487;48.626;12.486;2023-12-04T03:12:56;21.57;;;15.73;;
12840;SDS011;6487;48.626;12.486;2023-12-04T03:15:26;22.33;;;15.07;;
12840;SDS011;6487;48.626;12.486;2023-12-04T03:17:58;19.37;;;14.13;;
12840;SDS011;6487;48.626;12.486;2023-12-04T03:20:32;22.57;;;14.27;;
12840;SDS011;6487;48.626;12.486;2023-12-04T03:23:01;20.83;;;15.87;;
12840;SDS011;6487;48.626;12.486;2023-12-04T03:25:29;22.50;;;15.87;;
12840;SDS011;6487;48.626;12.486;2023-12-04T03:27:58;23.63;;;15.77;;
12840;SDS011;6487;48.626;12.486;2023-12-04T03:30:27;22.83;;;15.40;;
12840;SDS011;6487;48.626;12.486;2023-12-04T03:32:56;25.17;;;15.97;;
12840;SDS011;6487;48.626;12.486;2023-12-04T03:35:24;19.53;;;14.40;;
12840;SDS011;6487;48.626;12.486;2023-12-04T03:37:54;22.73;;;14.23;;
12840;SDS011;6487;48.626;12.486;2023-12-04T03:40:22;20.80;;;14.87;;
12840;SDS011;6487;48.626;12.486;2023-12-04T03:42:51;22.40;;;15.87;;
12840;SDS011;6487;48.626;12.486;2023-12-04T03:45:19;22.27;;;15.57;;
12840;SDS011;6487;48.626;12.486;2023-12-04T03:47:49;20.50;;;15.23;;
12840;SDS011;6487;48.626;12.486;2023-12-04T03:50:18;21.87;;;15.07;;
12840;SDS011;6487;48.626;12.486;2023-12-04T03:52:47;24.23;;;15.70;;
12840;SDS011;6487;48.626;12.486;2023-12-04T03:55:15;23.10;;;15.50;;
12840;SDS011;6487;48.626;12.486;2023-12-04T03:57:46;20.53;;;15.13;;
12840;SDS011;6487;48.626;12.486;2023-12-04T04:00:14;22.40;;;15.83;;
12840;SDS011;6487;48.626;12.486;2023-12-04T04:02:44;21.87;;;14.90;;
12840;SDS011;6487;48.626;12.486;2023-12-04T04:05:14;21.60;;;14.43;;
12840;SDS011;6487;48.626;12.486;2023-12-04T04:07:43;24.47;;;16.27;;
12840;SDS011;6487;48.626;12.486;2023-12-04T04:10:12;22.10;;;15.83;;
12840;SDS011;6487;48.626;12.486;2023-12-04T04:12:40;24.27;;;15.37;;
12840;SDS011;6487;48.626;12.486;2023-12-04T04:15:09;24.33;;;16.53;;
12840;SDS011;6487;48.626;12.486;2023-12-04T04:17:42;22.30;;;14.73;;
12840;SDS011;6487;48.626;12.486;2023-12-04T04:20:11;21.00;;;14.93;;
12840;SDS011;6487;48.626;12.486;2023-12-04T04:22:41;18.87;;;13.37;;
12840;SDS011;6487;48.626;12.486;2023-12-04T04:25:09;23.43;;;15.70;;
12840;SDS011;6487;48.626;12.486;2023-12-04T04:27:38;21.80;;;15.03;;
12840;SDS011;6487;48.626;12.486;2023-12-04T04:30:06;20.00;;;14.07;;
12840;SDS011;6487;48.626;12.486;2023-12-04T04:32:36;19.50;;;14.10;;
12840;SDS011;6487;48.626;12.486;2023-12-04T04:35:04;20.43;;;14.27;;
12840;SDS011;6487;48.626;12.486;2023-12-04T04:37:35;19.40;;;13.77;;
12840;SDS011;6487;48.626;12.486;2023-12-04T04:40:05;20.17;;;13.67;;
12840;SDS011;6487;48.626;12.486;2023-12-04T04:42:35;18.30;;;13.53;;
12840;SDS011;6487;48.626;12.486;2023-12-04T04:45:04;20.77;;;14.50;;
12840;SDS011;6487;48.626;12.486;2023-12-04T04:47:33;21.03;;;15.10;;
12840;SDS011;6487;48.626;12.486;2023-12-04T04:50:06;20.67;;;14.33;;
12840;SDS011;6487;48.626;12.486;2023-12-04T04:52:36;19.20;;;13.90;;
12840;SDS011;6487;48.626;12.486;2023-12-04T04:55:05;21.87;;;14.83;;
12840;SDS011;6487;48.626;12.486;2023-12-04T04:57:34;22.90;;;14.43;;
12840;SDS011;6487;48.626;12.486;2023-12-04T05:00:06;20.83;;;14.20;;
12840;SDS011;6487;48.626;12.486;2023-12-04T05:02:35;21.67;;;13.77;;
12840;SDS011;6487;48.626;12.486;2023-12-04T05:05:06;24.53;;;15.83;;
12840;SDS011;6487;48.626;12.486;2023-12-04T05:07:34;21.70;;;14.83;;
12840;SDS011;6487;48.626;12.486;2023-12-04T05:10:05;20.53;;;14.27;;
12840;SDS011;6487;48.626;12.486;2023-12-04T05:12:36;20.57;;;14.97;;
12840;SDS011;6487;48.626;12.486;2023-12-04T05:15:05;21.20;;;14.77;;
12840;SDS011;6487;48.626;12.486;2023-12-04T05:17:34;20.93;;;14.80;;
12840;SDS011;6487;48.626;12.486;2023-12-04T05:20:03;24.37;;;16.03;;
12840;SDS011;6487;48.626;12.486;2023-12-04T05:22:34;19.30;;;13.87;;
12840;SDS011;6487;48.626;12.486;2023-12-04T05:25:04;21.10;;;14.83;;
12840;SDS011;6487;48.626;12.486;2023-12-04T05:27:34;21.57;;;15.53;;
12840;SDS011;6487;48.626;12.486;2023-12-04T05:30:04;19.63;;;14.13;;
12840;SDS011;6487;48.626;12.486;2023-12-04T05:32:34;21.07;;;14.57;;
12840;SDS011;6487;48.626;12.486;2023-12-04T05:35:02;21.57;;;14.83;;
12840;SDS011;6487;48.626;12.486;2023-12-04T05:37:32;21.13;;;15.37;;
12840;SDS011;6487;48.626;12.486;2023-12-04T05:40:00;21.43;;;14.90;;
12840;SDS011;6487;48.626;12.486;2023-12-04T05:42:32;21.73;;;14.60;;
12840;SDS011;6487;48.626;12.486;2023-12-04T05:45:00;22.77;;;15.27;;
12840;SDS011;6487;48.626;12.486;2023-12-04T05:47:29;20.37;;;15.30;;
12840;SDS011;6487;48.626;12.486;2023-12-04T05:49:57;23.60;;;14.97;;
12840;SDS011;6487;48.626;12.486;2023-12-04T05:52:26;22.03;;;14.93;;
12840;SDS011;6487;48.626;12.486;2023-12-04T05:54:57;22.93;;;15.53;;
12840;SDS011;6487;48.626;12.486;2023-12-04T05:57:26;22.80;;;14.70;;
12840;SDS011;6487;48.626;12.486;2023-12-04T05:59:56;22.50;;;14.73;;
12840;SDS011;6487;48.626;12.486;2023-12-04T06:02:26;22.60;;;15.33;;
12840;SDS011;6487;48.626;12.486;2023-12-04T06:04:57;21.90;;;15.40;;
12840;SDS011;6487;48.626;12.486;2023-12-04T06:07:25;22.23;;;14.63;;
12840;SDS011;6487;48.626;12.486;2023-12-04T06:09:54;22.67;;;15.57;;
12840;SDS011;6487;48.626;12.486;2023-12-04T06:12:22;20.47;;;14.87;;
12840;SDS011;6487;48.626;12.486;2023-12-04T06:14:51;21.00;;;14.53;;
12840;SDS011;6487;48.626;12.486;2023-12-04T06:17:21;24.47;;;15.17;;
12840;SDS011;6487;48.626;12.486;2023-12-04T06:19:49;21.33;;;14.80;;
12840;SDS011;6487;48.626;12.486;2023-12-04T06:22:18;19.43;;;14.07;;
12840;SDS011;6487;48.626;12.486;2023-12-04T06:24:48;22.60;;;15.40;;
12840;SDS011;6487;48.626;12.486;2023-12-04T06:27:18;22.90;;;15.53;;
12840;SDS011;6487;48.626;12.486;2023-12-04T06:30:02;23.03;;;15.77;;
12840;SDS011;6487;48.626;12.486;2023-12-04T06:32:33;22.00;;;15.37;;
12840;SDS011;6487;48.626;12.486;2023-12-04T06:35:02;21.53;;;14.80;;
12840;SDS011;6487;48.626;12.486;2023-12-04T06:37:32;20.70;;;14.47;;
12840;SDS011;6487;48.626;12.486;2023-12-04T06:40:02;22.90;;;15.60;;
12840;SDS011;6487;48.626;12.486;2023-12-04T06:42:35;22.53;;;14.83;;
12840;SDS011;6487;48.626;12.486;2023-12-04T06:45:04;22.30;;;14.20;;
12840;SDS011;6487;48.626;12.486;2023-12-04T06:47:38;20.17;;;13.87;;
12840;SDS011;6487;48.626;12.486;2023-12-04T06:50:11;24.87;;;16.93;;
12840;SDS011;6487;48.626;12.486;2023-12-04T06:52:39;22.03;;;15.50;;
12840;SDS011;6487;48.626;12.486;2023-12-04T06:55:11;20.50;;;15.03;;
12840;SDS011;6487;48.626;12.486;2023-12-04T06:57:40;21.33;;;16.10;;
12840;SDS011;6487;48.626;12.486;2023-12-04T07:00:09;21.80;;;15.30;;
12840;SDS011;6487;48.626;12.486;2023-12-04T07:02:49;21.33;;;15.23;;
12840;SDS011;6487;48.626;12.486;2023-12-04T07:05:19;22.63;;;16.10;;
12840;SDS011;6487;48.626;12.486;2023-12-04T07:07:48;22.50;;;16.27;;
12840;SDS011;6487;48.626;12.486;2023-12-04T07:10:17;21.40;;;15.47;;
12840;SDS011;6487;48.626;12.486;2023-12-04T07:12:46;23.70;;;16.37;;
12840;SDS011;6487;48.626;12.486;2023-12-04T07:15:15;21.80;;;15.93;;
12840;SDS011;6487;48.626;12.486;2023-12-04T07:17:43;21.10;;;15.40;;
12840;SDS011;6487;48.626;12.486;2023-12-04T07:20:13;23.40;;;16.40;;
12840;SDS011;6487;48.626;12.486;2023-12-04T07:22:42;25.37;;;16.93;;
12840;SDS011;6487;48.626;12.486;2023-12-04T07:25:11;25.83;;;17.57;;
12840;SDS011;6487;48.626;12.486;2023-12-04T07:27:39;23.23;;;16.53;;
12840;SDS011;6487;48.626;12.486;2023-12-04T07:30:08;24.20;;;18.07;;
12840;SDS011;6487;48.626;12.486;2023-12-04T07:32:37;26.40;;;18.40;;
12840;SDS011;6487;48.626;12.486;2023-12-04T07:35:06;24.00;;;17.00;;
12840;SDS011;6487;48.626;12.486;2023-12-04T07:37:37;25.33;;;17.90;;
12840;SDS011;6487;48.626;12.486;2023-12-04T07:40:06;26.97;;;18.17;;
12840;SDS011;6487;48.626;12.486;2023-12-04T07:42:37;25.30;;;17.70;;
12840;SDS011;6487;48.626;12.486;2023-12-04T07:45:11;28.83;;;18.73;;
12840;SDS011;6487;48.626;12.486;2023-12-04T07:47:42;23.67;;;16.53;;
12840;SDS011;6487;48.626;12.486;2023-12-04T07:50:10;26.83;;;18.67;;
12840;SDS011;6487;48.626;12.486;2023-12-04T07:52:41;24.70;;;16.90;;
12840;SDS011;6487;48.626;12.486;2023-12-04T07:55:10;25.80;;;18.00;;
12840;SDS011;6487;48.626;12.486;2023-12-04T07:57:38;26.47;;;18.07;;
12840;SDS011;6487;48.626;12.486;2023-12-04T08:00:07;25.97;;;17.90;;
12840;SDS011;6487;48.626;12.486;2023-12-04T08:02:37;28.33;;;19.03;;
12840;SDS011;6487;48.626;12.486;2023-12-04T08:05:05;25.00;;;18.33;;
12840;SDS011;6487;48.626;12.486;2023-12-04T08:07:36;26.57;;;18.40;;
12840;SDS011;6487;48.626;12.486;2023-12-04T08:10:07;25.37;;;18.43;;
12840;SDS011;6487;48.626;12.486;2023-12-04T08:12:36;27.73;;;19.90;;
12840;SDS011;6487;48.626;12.486;2023-12-04T08:15:06;29.93;;;19.60;;
12840;SDS011;6487;48.626;12.486;2023-12-04T08:17:36;29.13;;;18.90;;
12840;SDS011;6487;48.626;12.486;2023-12-04T08:20:05;30.27;;;20.80;;
12840;SDS011;6487;48.626;12.486;2023-12-04T08:22:49;27.93;;;20.73;;
12840;SDS011;6487;48.626;12.486;2023-12-04T08:25:19;32.43;;;21.60;;
12840;SDS011;6487;48.626;12.486;2023-12-04T08:27:48;29.10;;;20.63;;
12840;SDS011;6487;48.626;12.486;2023-12-04T08:30:18;31.13;;;20.47;;
12840;SDS011;6487;48.626;12.486;2023-12-04T08:32:47;32.43;;;22.70;;
12840;SDS011;6487;48.626;12.486;2023-12-04T08:35:15;33.30;;;23.63;;
12840;SDS011;6487;48.626;12.486;2023-12-04T08:37:44;31.90;;;21.50;;
12840;SDS011;6487;48.626;12.486;2023-12-04T08:40:13;31.53;;;21.60;;
12840;SDS011;6487;48.626;12.486;2023-12-04T08:42:44;26.83;;;17.20;;
12840;SDS011;6487;48.626;12.486;2023-12-04T08:45:12;27.20;;;16.70;;
12840;SDS011;6487;48.626;12.486;2023-12-04T08:47:44;29.23;;;17.47;;
12840;SDS011;6487;48.626;12.486;2023-12-04T08:50:13;28.27;;;16.17;;
12840;SDS011;6487;48.626;12.486;2023-12-04T08:52:42;26.37;;;15.03;;
12840;SDS011;6487;48.626;12.486;2023-12-04T08:55:11;25.50;;;15.83;;
12840;SDS011;6487;48.626;12.486;2023-12-04T08:57:40;26.47;;;14.17;;
12840;SDS011;6487;48.626;12.486;2023-12-04T09:00:11;22.60;;;14.00;;
12840;SDS011;6487;48.626;12.486;2023-12-04T09:02:41;21.80;;;15.37;;
12840;SDS011;6487;48.626;12.486;2023-12-04T09:05:19;26.50;;;14.97;;
12840;SDS011;6487;48.626;12.486;2023-12-04T09:07:49;22.23;;;13.17;;
12840;SDS011;6487;48.626;12.486;2023-12-04T09:10:37;23.43;;;14.70;;
12840;SDS011;6487;48.626;12.486;2023-12-04T09:13:26;21.77;;;14.20;;
12840;SDS011;6487;48.626;12.486;2023-12-04T09:15:57;23.40;;;16.50;;
12840;SDS011;6487;48.626;12.486;2023-12-04T09:18:25;23.27;;;14.60;;
12840;SDS011;6487;48.626;12.486;2023-12-04T09:20:54;23.83;;;15.57;;
12840;SDS011;6487;48.626;12.486;2023-12-04T09:23:22;25.73;;;16.80;;
12840;SDS011;6487;48.626;12.486;2023-12-04T09:25:52;24.97;;;17.00;;
12840;SDS011;6487;48.626;12.486;2023-12-04T09:28:21;29.40;;;18.57;;
12840;SDS011;6487;48.626;12.486;2023-12-04T09:30:50;25.73;;;17.60;;
12840;SDS011;6487;48.626;12.486;2023-12-04T09:33:20;31.27;;;19.03;;
12840;SDS011;6487;48.626;12.486;2023-12-04T09:35:48;29.70;;;18.57;;
12840;SDS011;6487;48.626;12.486;2023-12-04T09:38:17;28.10;;;17.70;;
12840;SDS011;6487;48.626;12.486;2023-12-04T09:40:46;26.00;;;16.00;;
12840;SDS011;6487;48.626;12.486;2023-12-04T09:43:14;19.23;;;11.43;;
12840;SDS011;6487;48.626;12.486;2023-12-04T09:45:43;15.43;;;10.37;;
12840;SDS011;6487;48.626;12.486;2023-12-04T09:48:12;12.40;;;8.43;;
12840;SDS011;6487;48.626;12.486;2023-12-04T09:50:42;16.43;;;8.53;;
12840;SDS011;6487;48.626;12.486;2023-12-04T09:53:12;12.60;;;7.63;;
12840;SDS011;6487;48.626;12.486;2023-12-04T09:55:40;17.07;;;10.03;;
12840;SDS011;6487;48.626;12.486;2023-12-04T09:58:09;14.63;;;9.30;;
12840;SDS011;6487;48.626;12.486;2023-12-04T10:00:43;11.90;;;8.00;;
12840;SDS011;6487;48.626;12.486;2023-12-04T10:03:13;13.87;;;8.10;;
12840;SDS011;6487;48.626;12.486;2023-12-04T10:05:44;11.27;;;7.60;;
12840;SDS011;6487;48.626;12.486;2023-12-04T10:08:13;10.17;;;7.57;;
12840;SDS011;6487;48.626;12.486;2023-12-04T10:10:43;9.60;;;7.47;;
12840;SDS011;6487;48.626;12.486;2023-12-04T10:13:12;9.87;;;7.20;;
12840;SDS011;6487;48.626;12.486;2023-12-04T10:16:01;9.37;;;6.73;;
12840;SDS011;6487;48.626;12.486;2023-12-04T10:18:30;10.73;;;6.77;;
12840;SDS011;6487;48.626;12.486;2023-12-04T10:21:00;8.97;;;6.83;;
12840;SDS011;6487;48.626;12.486;2023-12-04T10:23:37;10.00;;;7.40;;
12840;SDS011;6487;48.626;12.486;2023-12-04T10:26:07;9.60;;;6.40;;
12840;SDS011;6487;48.626;12.486;2023-12-04T10:28:36;7.37;;;5.40;;
12840;SDS011;6487;48.626;12.486;2023-12-04T10:31:05;7.33;;;4.73;;
12840;SDS011;6487;48.626;12.486;2023-12-04T10:33:34;8.67;;;6.10;;
12840;SDS011;6487;48.626;12.486;2023-12-04T10:36:10;9.37;;;5.63;;
12840;SDS011;6487;48.626;12.486;2023-12-04T10:38:39;8.63;;;5.30;;
12840;SDS011;6487;48.626;12.486;2023-12-04T10:41:11;7.03;;;4.83;;
12840;SDS011;6487;48.626;12.486;2023-12-04T10:43:46;6.53;;;4.97;;
12840;SDS011;6487;48.626;12.486;2023-12-04T10:46:26;7.83;;;5.33;;
12840;SDS011;6487;48.626;12.486;2023-12-04T10:48:56;7.53;;;4.77;;
12840;SDS011;6487;48.626;12.486;2023-12-04T10:51:28;6.13;;;5.23;;
12840;SDS011;6487;48.626;12.486;2023-12-04T10:53:57;5.33;;;4.37;;
12840;SDS011;6487;48.626;12.486;2023-12-04T10:56:31;7.97;;;4.83;;
12840;SDS011;6487;48.626;12.486;2023-12-04T10:59:05;7.83;;;5.27;;
12840;SDS011;6487;48.626;12.486;2023-12-04T11:01:39;6.80;;;5.37;;
12840;SDS011;6487;48.626;12.486;2023-12-04T11:04:13;5.30;;;4.80;;
12840;SDS011;6487;48.626;12.486;2023-12-04T11:06:49;5.67;;;4.40;;
12840;SDS011;6487;48.626;12.486;2023-12-04T11:09:21;6.00;;;4.47;;
12840;SDS011;6487;48.626;12.486;2023-12-04T11:11:56;5.73;;;4.40;;
12840;SDS011;6487;48.626;12.486;2023-12-04T11:14:33;7.03;;;4.93;;
12840;SDS011;6487;48.626;12.486;2023-12-04T11:17:12;6.87;;;5.07;;
12840;SDS011;6487;48.626;12.486;2023-12-04T11:19:46;6.97;;;4.60;;
12840;SDS011;6487;48.626;12.486;2023-12-04T11:22:23;5.90;;;4.47;;
12840;SDS011;6487;48.626;12.486;2023-12-04T11:24:53;7.23;;;5.07;;
12840;SDS011;6487;48.626;12.486;2023-12-04T11:27:23;8.00;;;5.27;;
12840;SDS011;6487;48.626;12.486;2023-12-04T11:29:52;5.73;;;4.50;;
12840;SDS011;6487;48.626;12.486;2023-12-04T11:32:23;7.27;;;5.30;;
12840;SDS011;6487;48.626;12.486;2023-12-04T11:34:54;6.03;;;4.80;;
12840;SDS011;6487;48.626;12.486;2023-12-04T11:37:25;7.10;;;5.50;;
12840;SDS011;6487;48.626;12.486;2023-12-04T11:39:54;7.00;;;5.37;;
12840;SDS011;6487;48.626;12.486;2023-12-04T11:42:24;5.93;;;4.47;;
12840;SDS011;6487;48.626;12.486;2023-12-04T11:44:55;7.20;;;4.70;;
12840;SDS011;6487;48.626;12.486;2023-12-04T11:47:27;5.47;;;4.53;;
12840;SDS011;6487;48.626;12.486;2023-12-04T11:49:57;6.67;;;4.30;;
12840;SDS011;6487;48.626;12.486;2023-12-04T11:52:33;34.07;;;18.30;;
12840;SDS011;6487;48.626;12.486;2023-12-04T11:55:03;28.30;;;18.73;;
12840;SDS011;6487;48.626;12.486;2023-12-04T11:57:35;13.97;;;9.60;;
12840;SDS011;6487;48.626;12.486;2023-12-04T12:00:12;14.90;;;9.53;;
12840;SDS011;6487;48.626;12.486;2023-12-04T12:03:00;15.33;;;11.57;;
12840;SDS011;6487;48.626;12.486;2023-12-04T12:05:48;22.57;;;14.50;;
12840;SDS011;6487;48.626;12.486;2023-12-04T12:08:21;21.50;;;14.73;;
12840;SDS011;6487;48.626;12.486;2023-12-04T12:10:51;25.20;;;14.97;;
12840;SDS011;6487;48.626;12.486;2023-12-04T12:13:21;22.67;;;15.07;;
12840;SDS011;6487;48.626;12.486;2023-12-04T12:15:52;20.27;;;14.87;;
12840;SDS011;6487;48.626;12.486;2023-12-04T12:18:21;24.47;;;16.00;;
12840;SDS011;6487;48.626;12.486;2023-12-04T12:20:54;20.83;;;14.47;;
12840;SDS011;6487;48.626;12.486;2023-12-04T12:23:25;25.03;;;14.67;;
12840;SDS011;6487;48.626;12.486;2023-12-04T12:25:54;22.50;;;15.03;;
12840;SDS011;6487;48.626;12.486;2023-12-04T12:28:23;22.93;;;13.67;;
12840;SDS011;6487;48.626;12.486;2023-12-04T12:30:51;19.87;;;14.33;;
12840;SDS011;6487;48.626;12.486;2023-12-04T12:33:20;20.10;;;13.57;;
12840;SDS011;6487;48.626;12.486;2023-12-04T12:35:50;21.40;;;14.47;;
12840;SDS011;6487;48.626;12.486;2023-12-04T12:38:30;23.90;;;15.17;;
12840;SDS011;6487;48.626;12.486;2023-12-04T12:41:01;23.07;;;14.77;;
12840;SDS011;6487;48.626;12.486;2023-12-04T12:43:35;20.43;;;13.57;;
12840;SDS011;6487;48.626;12.486;2023-12-04T12:46:04;22.13;;;15.10;;
12840;SDS011;6487;48.626;12.486;2023-12-04T12:48:34;21.03;;;13.80;;
12840;SDS011;6487;48.626;12.486;2023-12-04T12:51:03;22.13;;;14.37;;
12840;SDS011;6487;48.626;12.486;2023-12-04T12:53:34;19.90;;;14.27;;
12840;SDS011;6487;48.626;12.486;2023-12-04T12:56:03;22.97;;;14.27;;
12840;SDS011;6487;48.626;12.486;2023-12-04T12:58:33;22.00;;;13.93;;
12840;SDS011;6487;48.626;12.486;2023-12-04T13:01:02;27.20;;;15.10;;
12840;SDS011;6487;48.626;12.486;2023-12-04T13:03:32;27.87;;;16.33;;
12840;SDS011;6487;48.626;12.486;2023-12-04T13:06:03;25.93;;;16.87;;
12840;SDS011;6487;48.626;12.486;2023-12-04T13:08:32;25.70;;;16.43;;
12840;SDS011;6487;48.626;12.486;2023-12-04T13:11:02;26.00;;;14.90;;
12840;SDS011;6487;48.626;12.486;2023-12-04T13:13:32;25.93;;;18.53;;
12840;SDS011;6487;48.626;12.486;2023-12-04T13:16:01;31.77;;;22.07;;
12840;SDS011;6487;48.626;12.486;2023-12-04T13:18:29;25.20;;;18.17;;
12840;SDS011;6487;48.626;12.486;2023-12-04T13:21:01;22.03;;;14.70;;
12840;SDS011;6487;48.626;12.486;2023-12-04T13:23:30;17.47;;;13.07;;
12840;SDS011;6487;48.626;12.486;2023-12-04T13:26:00;22.57;;;13.37;;
12840;SDS011;6487;48.626;12.486;2023-12-04T13:28:30;17.07;;;12.27;;
12840;SDS011;6487;48.626;12.486;2023-12-04T13:31:09;20.10;;;13.27;;
12840;SDS011;6487;48.626;12.486;2023-12-04T13:33:37;19.23;;;13.03;;
12840;SDS011;6487;48.626;12.486;2023-12-04T13:36:06;19.57;;;13.70;;
12840;SDS011;6487;48.626;12.486;2023-12-04T13:38:36;22.73;;;15.03;;
12840;SDS011;6487;48.626;12.486;2023-12-04T13:41:06;20.37;;;12.87;;
12840;SDS011;6487;48.626;12.486;2023-12-04T13:44:06;17.97;;;12.40;;
12840;SDS011;6487;48.626;12.486;2023-12-04T13:46:34;17.13;;;12.47;;
12840;SDS011;6487;48.626;12.486;2023-12-04T13:49:02;19.13;;;12.70;;
12840;SDS011;6487;48.626;12.486;2023-12-04T13:51:31;19.70;;;12.10;;
12840;SDS011;6487;48.626;12.486;2023-12-04T13:54:00;20.60;;;13.60;;
12840;SDS011;6487;48.626;12.486;2023-12-04T13:56:44;22.87;;;14.40;;
12840;SDS011;6487;48.626;12.486;2023-12-04T13:59:20;29.53;;;16.47;;
12840;SDS011;6487;48.626;12.486;2023-12-04T14:01:49;29.47;;;16.60;;
12840;SDS011;6487;48.626;12.486;2023-12-04T14:04:21;23.33;;;13.90;;
12840;SDS011;6487;48.626;12.486;2023-12-04T14:06:53;25.87;;;14.90;;
12840;SDS011;6487;48.626;12.486;2023-12-04T14:09:26;28.97;;;18.23;;
12840;SDS011;6487;48.626;12.486;2023-12-04T14:11:56;22.93;;;15.00;;
12840;SDS011;6487;48.626;12.486;2023-12-04T14:14:25;25.23;;;15.03;;
12840;SDS011;6487;48.626;12.486;2023-12-04T14:16:53;21.10;;;13.50;;
12840;SDS011;6487;48.626;12.486;2023-12-04T14:19:23;21.03;;;13.87;;
12840;SDS011;6487;48.626;12.486;2023-12-04T14:21:51;18.87;;;12.73;;
12840;SDS011;6487;48.626;12.486;2023-12-04T14:24:20;20.90;;;13.13;;
12840;SDS011;6487;48.626;12.486;2023-12-04T14:26:49;19.47;;;13.50;;
12840;SDS011;6487;48.626;12.486;2023-12-04T14:29:21;22.47;;;13.93;;
12840;SDS011;6487;48.626;12.486;2023-12-04T14:31:50;20.57;;;13.67;;
12840;SDS011;6487;48.626;12.486;2023-12-04T14:34:18;22.43;;;13.20;;
12840;SDS011;6487;48.626;12.486;2023-12-04T14:36:49;19.77;;;13.67;;
12840;SDS011;6487;48.626;12.486;2023-12-04T14:39:17;21.03;;;13.80;;
12840;SDS011;6487;48.626;12.486;2023-12-04T14:41:46;19.80;;;12.77;;
12840;SDS011;6487;48.626;12.486;2023-12-04T14:44:14;20.40;;;13.20;;